Time;durP1;ratioP1;P1;durP2;ratioP2;P2;SDS_P1;SDS_P2;PMS_P1;PMS_P2;Temp;Humidity;BMP_temperature;BMP_pressure;BME280_temperature;BME280_humidity;BME280_pressure;Samples;Min_cycle;Max_cycle;Signal;HPM_P1;HPM_P2
2022/09/26 00:00:34;;;;;;;4.28;3.70;;;10.50;99.90;;;;;;4921494;28;89891;-34
2022/09/26 00:03:00;;;;;;;5.00;4.38;;;10.50;99.90;;;;;;4920457;28;90665;-32
2022/09/26 00:05:25;;;;;;;4.65;3.28;;;10.50;99.90;;;;;;4920831;28;89981;-34
2022/09/26 00:07:51;;;;;;;4.13;3.80;;;10.50;99.90;;;;;;4921664;28;88796;-34
2022/09/26 00:10:17;;;;;;;4.28;3.88;;;10.50;99.90;;;;;;4920306;28;90029;-34
2022/09/26 00:12:44;;;;;;;5.40;3.95;;;10.50;99.90;;;;;;4921391;28;89804;-31
2022/09/26 00:15:10;;;;;;;4.28;3.20;;;10.60;99.90;;;;;;4920885;28;88342;-34
2022/09/26 00:17:36;;;;;;;3.92;3.45;;;10.60;99.90;;;;;;4921113;28;89479;-32
2022/09/26 00:20:01;;;;;;;4.20;2.75;;;10.60;99.90;;;;;;4921564;28;90177;-32
2022/09/26 00:22:27;;;;;;;5.07;3.55;;;10.60;99.90;;;;;;4920337;28;89514;-33
2022/09/26 00:24:53;;;;;;;3.88;3.53;;;10.70;99.90;;;;;;4921052;28;89842;-34
2022/09/26 00:27:19;;;;;;;7.78;4.68;;;10.70;99.90;;;;;;4920074;28;89291;-32
2022/09/26 00:29:45;;;;;;;7.15;4.03;;;10.70;99.90;;;;;;4921084;28;90459;-32
2022/09/26 00:32:11;;;;;;;5.50;4.30;;;10.60;99.90;;;;;;4920928;28;89237;-31
2022/09/26 00:34:36;;;;;;;6.22;3.20;;;10.70;99.90;;;;;;4919162;28;89736;-31
2022/09/26 00:37:02;;;;;;;6.70;4.35;;;10.70;99.90;;;;;;4921192;28;89701;-31
2022/09/26 00:39:28;;;;;;;5.50;4.10;;;10.70;99.90;;;;;;4920301;28;89499;-33
2022/09/26 00:41:53;;;;;;;7.13;4.05;;;10.70;99.90;;;;;;4921330;28;90294;-32
2022/09/26 00:47:49;;;;;;;4.25;3.05;;;10.70;99.90;;;;;;4958193;28;89239;-29
2022/09/26 00:50:23;;;;;;;4.35;3.30;;;10.70;99.90;;;;;;4959207;28;90240;-31
2022/09/26 00:53:00;;;;;;;10.68;3.47;;;10.70;99.90;;;;;;4959410;28;90220;-30
2022/09/26 00:55:33;;;;;;;3.70;2.90;;;10.70;99.90;;;;;;4960005;28;90486;-29
2022/09/26 00:58:08;;;;;;;3.40;3.10;;;10.80;99.90;;;;;;4959029;28;90065;-30
2022/09/26 01:00:35;;;;;;;7.57;3.20;;;10.80;99.90;;;;;;4959232;28;91233;-31
2022/09/26 01:03:01;;;;;;;6.32;3.80;;;10.80;99.90;;;;;;4959244;28;90035;-30
2022/09/26 01:05:27;;;;;;;4.78;3.67;;;10.80;99.90;;;;;;4958989;28;90010;-29
2022/09/26 01:07:55;;;;;;;4.65;3.55;;;10.80;99.90;;;;;;4959760;28;89675;-31
2022/09/26 01:10:23;;;;;;;5.03;3.47;;;10.80;99.90;;;;;;4962904;28;89562;-31
2022/09/26 01:12:49;;;;;;;4.40;3.10;;;10.80;99.90;;;;;;4962959;28;89705;-29
2022/09/26 01:15:15;;;;;;;6.25;3.33;;;10.80;99.90;;;;;;4962565;28;89205;-32
2022/09/26 01:17:43;;;;;;;5.22;3.50;;;10.80;99.90;;;;;;4962605;28;88486;-28
2022/09/26 01:20:28;;;;;;;5.73;3.63;;;10.80;99.90;;;;;;4962713;28;90324;-30
2022/09/26 01:23:23;;;;;;;4.22;3.17;;;10.80;99.90;;;;;;4962753;28;89487;-33
2022/09/26 01:26:27;;;;;;;5.57;3.08;;;10.80;99.90;;;;;;4962858;28;88706;-30
2022/09/26 01:29:25;;;;;;;2.85;2.60;;;10.80;99.90;;;;;;4962789;28;89346;-35
2022/09/26 01:35:11;;;;;;;4.80;3.20;;;10.80;99.90;;;;;;4961872;28;89661;-32
2022/09/26 01:37:40;;;;;;;5.20;3.45;;;10.80;99.90;;;;;;4962674;28;89703;-31
2022/09/26 01:40:22;;;;;;;4.00;3.25;;;10.80;99.90;;;;;;4962560;28;88812;-32
2022/09/26 01:42:58;;;;;;;6.70;3.65;;;10.80;99.90;;;;;;4962546;28;90418;-32
2022/09/26 01:45:33;;;;;;;11.85;3.63;;;10.80;99.90;;;;;;4965872;28;90604;-30
2022/09/26 01:48:18;;;;;;;5.13;4.07;;;10.80;99.90;;;;;;4964059;28;90669;-33
2022/09/26 01:50:54;;;;;;;4.00;3.05;;;10.80;99.90;;;;;;4982964;28;89414;-30
2022/09/26 01:53:32;;;;;;;2.88;2.67;;;10.80;99.90;;;;;;4981669;28;89376;-30
2022/09/26 01:56:17;;;;;;;3.15;2.88;;;10.80;99.90;;;;;;4981979;28;89111;-30
2022/09/26 01:58:48;;;;;;;3.47;3.17;;;10.80;99.90;;;;;;4982267;28;89173;-31
2022/09/26 02:01:17;;;;;;;5.90;3.03;;;10.80;99.90;;;;;;4982202;28;90038;-30
2022/09/26 02:03:50;;;;;;;10.02;3.92;;;10.80;99.90;;;;;;4981699;28;90243;-34
2022/09/26 02:06:22;;;;;;;3.45;3.03;;;10.80;99.90;;;;;;4981135;28;89867;-30
2022/09/26 02:08:56;;;;;;;3.97;3.55;;;10.80;99.90;;;;;;4964079;28;89467;-29
2022/09/26 02:11:23;;;;;;;4.38;3.30;;;10.80;99.90;;;;;;4981833;28;88633;-30
2022/09/26 02:14:05;;;;;;;5.55;3.90;;;10.90;99.90;;;;;;4982334;28;90498;-29
2022/09/26 02:16:38;;;;;;;4.72;3.30;;;10.90;99.90;;;;;;4980934;28;90297;-31
2022/09/26 02:19:19;;;;;;;4.50;3.33;;;10.90;99.90;;;;;;4981367;28;90926;-30
2022/09/26 02:21:45;;;;;;;6.25;3.08;;;10.90;99.90;;;;;;4982580;28;89050;-30
2022/09/26 02:24:11;;;;;;;4.43;3.60;;;10.90;99.90;;;;;;4975035;28;90559;-34
2022/09/26 02:26:37;;;;;;;4.85;3.30;;;11.00;99.90;;;;;;4974248;28;88874;-33
2022/09/26 02:29:05;;;;;;;6.28;3.75;;;11.00;99.90;;;;;;4981549;28;90570;-31
2022/09/26 02:31:35;;;;;;;7.80;3.50;;;11.00;99.90;;;;;;4981072;28;87878;-31
2022/09/26 02:34:02;;;;;;;7.25;3.38;;;11.00;99.90;;;;;;4981289;28;91552;-30
2022/09/26 02:36:27;;;;;;;6.00;3.15;;;11.10;99.90;;;;;;4980915;28;90519;-33
2022/09/26 02:38:53;;;;;;;5.18;3.78;;;11.10;99.90;;;;;;4981243;28;89664;-30
2022/09/26 02:41:46;;;;;;;3.67;3.30;;;11.10;99.90;;;;;;4981144;28;89877;-30
2022/09/26 02:44:24;;;;;;;4.07;3.65;;;11.10;99.90;;;;;;4981516;28;90313;-32
2022/09/26 02:47:11;;;;;;;5.80;4.75;;;11.10;99.90;;;;;;4981549;28;90174;-30
2022/09/26 02:50:15;;;;;;;5.65;4.40;;;11.20;99.90;;;;;;4981067;28;91172;-33
2022/09/26 02:53:12;;;;;;;3.70;3.28;;;11.20;99.90;;;;;;4949372;28;88211;-29
2022/09/26 02:55:43;;;;;;;8.10;4.00;;;11.10;99.90;;;;;;4970631;28;90198;-33
2022/09/26 02:58:25;;;;;;;8.07;3.65;;;11.20;99.90;;;;;;4980854;28;89769;-30
2022/09/26 03:01:09;;;;;;;4.13;3.53;;;11.20;99.90;;;;;;4981716;28;89233;-29
2022/09/26 03:03:49;;;;;;;13.65;4.40;;;11.20;99.90;;;;;;4980311;28;89528;-32
2022/09/26 03:06:17;;;;;;;9.98;3.67;;;11.10;99.90;;;;;;4980232;28;90294;-29
2022/09/26 03:08:48;;;;;;;6.40;4.07;;;11.10;99.90;;;;;;4981175;28;89402;-30
2022/09/26 03:11:22;;;;;;;10.73;5.55;;;11.10;99.90;;;;;;4980662;28;89450;-29
2022/09/26 03:13:51;;;;;;;5.93;4.05;;;11.10;99.90;;;;;;4981151;28;89530;-29
2022/09/26 03:16:19;;;;;;;4.30;3.88;;;11.10;99.90;;;;;;4980552;28;90426;-30
2022/09/26 03:18:52;;;;;;;5.75;5.15;;;11.10;99.90;;;;;;4980721;28;90057;-32
2022/09/26 03:21:19;;;;;;;8.57;5.55;;;11.10;99.90;;;;;;4980963;28;90093;-32
2022/09/26 03:23:45;;;;;;;6.57;5.28;;;11.10;99.90;;;;;;4981390;28;89838;-29
2022/09/26 03:26:16;;;;;;;7.10;5.00;;;11.00;99.90;;;;;;4980395;28;89911;-30
2022/09/26 03:28:41;;;;;;;5.63;4.68;;;11.00;99.90;;;;;;4980038;28;90021;-29
2022/09/26 03:31:07;;;;;;;7.60;5.47;;;11.00;99.90;;;;;;4980062;28;90426;-30
2022/09/26 03:33:34;;;;;;;5.93;5.05;;;10.90;99.90;;;;;;4980669;28;89749;-33
2022/09/26 03:36:04;;;;;;;8.52;5.65;;;10.90;99.90;;;;;;4980372;28;90066;-33
2022/09/26 03:38:29;;;;;;;6.45;4.75;;;10.90;99.90;;;;;;4979969;28;88504;-31
2022/09/26 03:40:57;;;;;;;7.38;5.53;;;10.90;99.90;;;;;;4980186;28;89882;-29
2022/09/26 03:43:23;;;;;;;6.50;5.30;;;10.90;99.90;;;;;;4980231;28;89629;-30
2022/09/26 03:45:49;;;;;;;5.57;5.07;;;10.90;99.90;;;;;;4979914;28;90310;-32
2022/09/26 03:48:15;;;;;;;9.48;6.05;;;10.90;99.90;;;;;;4980466;28;90001;-31
2022/09/26 03:50:41;;;;;;;7.93;6.00;;;10.90;99.90;;;;;;4980440;28;89978;-30
2022/09/26 03:53:08;;;;;;;7.70;5.35;;;10.90;99.90;;;;;;4979562;28;89237;-34
2022/09/26 03:55:33;;;;;;;8.73;6.40;;;10.90;99.90;;;;;;4980367;28;90217;-30
2022/09/26 03:58:00;;;;;;;8.30;6.28;;;11.00;99.90;;;;;;4979914;28;89600;-29
2022/09/26 04:00:26;;;;;;;8.05;6.47;;;10.90;99.90;;;;;;4980377;28;89595;-30
2022/09/26 04:02:52;;;;;;;9.57;6.50;;;10.90;99.90;;;;;;4980593;28;89929;-32
2022/09/26 04:05:17;;;;;;;12.23;5.45;;;10.90;99.90;;;;;;4979469;28;90422;-32
2022/09/26 04:07:43;;;;;;;15.32;7.03;;;10.90;99.90;;;;;;4980008;28;90426;-29
2022/09/26 04:10:11;;;;;;;7.88;6.30;;;10.80;99.90;;;;;;4980189;28;89445;-31
2022/09/26 04:12:37;;;;;;;8.90;6.45;;;10.90;99.90;;;;;;4979948;28;89206;-31
2022/09/26 04:15:06;;;;;;;7.63;6.22;;;10.80;99.90;;;;;;4980541;28;89001;-29
2022/09/26 04:17:32;;;;;;;7.03;6.25;;;10.90;99.90;;;;;;4979499;28;90192;-31
2022/09/26 04:19:58;;;;;;;7.93;5.78;;;10.80;99.90;;;;;;4979347;28;90368;-28
2022/09/26 04:22:24;;;;;;;8.45;7.00;;;10.80;99.90;;;;;;4974314;28;88418;-32
2022/09/26 04:24:50;;;;;;;11.32;6.55;;;10.80;99.90;;;;;;4971859;28;91271;-31
2022/09/26 04:27:17;;;;;;;10.43;6.68;;;10.80;99.90;;;;;;4979341;28;89256;-33
2022/09/26 04:29:43;;;;;;;9.10;6.93;;;10.80;99.90;;;;;;4980136;28;89562;-32
2022/09/26 04:32:10;;;;;;;8.02;6.68;;;10.80;99.90;;;;;;4979922;28;88789;-30
2022/09/26 04:34:37;;;;;;;8.52;7.70;;;10.90;99.90;;;;;;4978913;28;90666;-32
2022/09/26 04:37:04;;;;;;;10.05;8.05;;;10.80;99.90;;;;;;4980511;28;90203;-32
2022/09/26 04:39:29;;;;;;;6.70;6.10;;;10.80;99.90;;;;;;4979669;28;89540;-29
2022/09/26 04:41:55;;;;;;;11.40;8.13;;;10.80;99.90;;;;;;4978818;28;89138;-31
2022/09/26 04:44:20;;;;;;;10.40;9.30;;;10.80;99.90;;;;;;4979832;28;90365;-30
2022/09/26 04:46:46;;;;;;;13.77;8.63;;;10.80;99.90;;;;;;4978468;28;90365;-29
2022/09/26 04:49:12;;;;;;;13.88;9.35;;;10.80;99.90;;;;;;4980018;28;89627;-31
2022/09/26 04:51:38;;;;;;;9.32;7.97;;;10.80;99.90;;;;;;4980050;28;88154;-30
2022/09/26 04:54:04;;;;;;;9.45;8.45;;;10.90;99.90;;;;;;4979754;28;90010;-32
2022/09/26 04:56:30;;;;;;;14.73;8.95;;;10.80;99.90;;;;;;4978998;28;88668;-30
2022/09/26 04:58:57;;;;;;;11.43;9.40;;;10.80;99.90;;;;;;4979221;28;90433;-32
2022/09/26 05:01:24;;;;;;;17.55;9.38;;;10.80;99.90;;;;;;4979133;28;88891;-29
2022/09/26 05:03:50;;;;;;;10.02;8.95;;;10.80;99.90;;;;;;4979578;28;90248;-31
2022/09/26 05:06:16;;;;;;;10.80;9.70;;;10.80;99.90;;;;;;4978203;28;90115;-31
2022/09/26 05:08:46;;;;;;;13.88;10.23;;;10.80;99.90;;;;;;4979228;28;90198;-29
2022/09/26 05:11:14;;;;;;;9.02;7.57;;;10.80;99.90;;;;;;4977393;28;88440;-32
2022/09/26 05:13:39;;;;;;;9.65;7.95;;;10.90;99.90;;;;;;4978682;28;88882;-31
2022/09/26 05:16:07;;;;;;;15.27;10.95;;;10.80;99.90;;;;;;4978811;28;90265;-29
2022/09/26 05:18:35;;;;;;;11.35;9.25;;;10.80;99.90;;;;;;4977541;28;89228;-29
2022/09/26 05:21:02;;;;;;;11.23;8.80;;;10.80;99.90;;;;;;4978910;28;89313;-34
2022/09/26 05:26:22;;;;;;;10.43;9.23;;;10.80;99.90;;;;;;4978517;28;89788;-30
2022/09/26 05:28:51;;;;;;;11.90;9.95;;;10.90;99.90;;;;;;4979485;28;89043;-31
2022/09/26 05:31:18;;;;;;;11.52;9.48;;;10.80;99.90;;;;;;4978286;28;90195;-30
2022/09/26 05:33:45;;;;;;;10.88;9.20;;;10.90;99.90;;;;;;4978604;28;90083;-31
2022/09/26 05:36:11;;;;;;;12.80;8.77;;;10.80;99.90;;;;;;4979138;28;90160;-29
2022/09/26 05:38:37;;;;;;;10.18;8.93;;;10.80;99.90;;;;;;4978953;28;89954;-32
2022/09/26 05:41:03;;;;;;;11.98;10.00;;;10.80;99.90;;;;;;4978893;28;89107;-30
2022/09/26 05:43:32;;;;;;;11.57;9.70;;;10.80;99.90;;;;;;4977392;28;90181;-30
2022/09/26 05:46:03;;;;;;;12.18;10.88;;;10.90;99.90;;;;;;4978751;28;89366;-28
2022/09/26 05:48:31;;;;;;;12.15;8.77;;;10.90;99.90;;;;;;4978094;28;89994;-30
2022/09/26 05:51:04;;;;;;;11.77;9.10;;;10.90;99.90;;;;;;4977876;28;89768;-29
2022/09/26 05:53:33;;;;;;;11.40;9.32;;;10.80;99.90;;;;;;4977641;28;90381;-31
2022/09/26 05:55:58;;;;;;;9.93;8.60;;;10.90;99.90;;;;;;4980344;28;90263;-30
2022/09/26 05:58:31;;;;;;;9.38;8.38;;;10.90;99.90;;;;;;4981502;28;90549;-30
2022/09/26 06:01:23;;;;;;;11.50;7.82;;;10.90;99.90;;;;;;4982046;28;88729;-29
2022/09/26 06:03:49;;;;;;;10.05;8.55;;;10.90;99.90;;;;;;4979055;28;89104;-29
2022/09/26 06:06:19;;;;;;;10.60;8.40;;;10.90;99.90;;;;;;4981253;28;90746;-28
2022/09/26 06:08:45;;;;;;;10.13;8.18;;;10.90;99.90;;;;;;4981386;28;89554;-30
2022/09/26 06:11:24;;;;;;;9.70;8.70;;;10.80;99.90;;;;;;4982002;28;88193;-30
2022/09/26 06:13:50;;;;;;;8.35;7.43;;;10.80;99.90;;;;;;4980763;28;89167;-34
2022/09/26 06:16:18;;;;;;;12.10;9.00;;;10.90;99.90;;;;;;4979470;28;89798;-30
2022/09/26 06:18:45;;;;;;;13.77;7.38;;;10.90;99.90;;;;;;4979190;28;89818;-31
2022/09/26 06:21:13;;;;;;;8.65;7.85;;;10.90;99.90;;;;;;4979299;28;90082;-31
2022/09/26 06:23:39;;;;;;;10.30;7.93;;;10.90;99.90;;;;;;4979835;28;90387;-31
2022/09/26 06:26:07;;;;;;;8.75;7.60;;;10.80;99.90;;;;;;4977860;28;89625;-30
2022/09/26 06:28:34;;;;;;;10.05;7.45;;;10.90;99.90;;;;;;4978742;28;89497;-31
2022/09/26 06:31:07;;;;;;;10.73;7.65;;;10.80;99.90;;;;;;4979255;28;88970;-31
2022/09/26 06:33:32;;;;;;;8.38;7.07;;;10.80;99.90;;;;;;4978869;28;91338;-29
2022/09/26 06:35:59;;;;;;;7.05;6.32;;;10.80;99.90;;;;;;4979713;28;89335;-33
2022/09/26 06:38:25;;;;;;;12.45;7.00;;;10.80;99.90;;;;;;4979514;28;89620;-30
2022/09/26 06:40:54;;;;;;;9.95;7.15;;;10.80;99.90;;;;;;4979445;28;89642;-33
2022/09/26 06:43:19;;;;;;;;;;;10.80;99.90;;;;;;4979346;28;90692;-32
2022/09/26 06:45:47;;;;;;;8.73;7.20;;;10.80;99.90;;;;;;4979483;28;90611;-32
2022/09/26 06:48:13;;;;;;;9.13;6.28;;;10.90;99.90;;;;;;4978048;28;91724;-33
2022/09/26 06:50:39;;;;;;;9.27;6.53;;;10.90;99.90;;;;;;4978862;28;90469;-32
2022/09/26 06:53:05;;;;;;;14.65;7.28;;;10.90;99.90;;;;;;4978522;28;89415;-29
2022/09/26 06:55:31;;;;;;;8.20;6.88;;;10.90;99.90;;;;;;4977107;28;89390;-31
2022/09/26 06:57:57;;;;;;;7.57;6.25;;;11.00;99.90;;;;;;4977920;28;89162;-31
2022/09/26 07:00:24;;;;;;;8.80;7.53;;;10.90;99.90;;;;;;4976727;28;89449;-29
2022/09/26 07:02:51;;;;;;;6.00;5.13;;;10.90;99.90;;;;;;4978014;28;89845;-32
2022/09/26 07:05:17;;;;;;;10.00;6.35;;;11.00;99.90;;;;;;4977273;28;89739;-30
2022/09/26 07:07:44;;;;;;;9.02;5.65;;;11.00;99.90;;;;;;4976750;28;88576;-30
2022/09/26 07:10:10;;;;;;;8.75;5.75;;;11.00;99.90;;;;;;4976695;28;89611;-30
2022/09/26 07:12:39;;;;;;;7.13;5.38;;;11.00;99.90;;;;;;4977539;28;90029;-30
2022/09/26 07:15:06;;;;;;;8.88;6.22;;;11.00;99.90;;;;;;4977931;28;90475;-29
2022/09/26 07:17:32;;;;;;;8.43;6.25;;;11.00;99.90;;;;;;4977469;28;90527;-32
2022/09/26 07:19:57;;;;;;;6.95;5.20;;;11.00;99.90;;;;;;4976830;28;89680;-30
2022/09/26 07:22:23;;;;;;;5.35;4.80;;;11.10;99.90;;;;;;4977418;28;90985;-32
2022/09/26 07:24:49;;;;;;;7.35;5.07;;;11.10;99.90;;;;;;4976707;28;88784;-32
2022/09/26 07:27:16;;;;;;;7.20;4.90;;;11.10;99.90;;;;;;4976892;28;89433;-33
2022/09/26 07:29:44;;;;;;;6.72;5.47;;;11.10;99.90;;;;;;4977618;28;90295;-30
2022/09/26 07:32:11;;;;;;;5.32;4.57;;;11.10;99.90;;;;;;4976998;28;90160;-36
2022/09/26 07:34:37;;;;;;;6.75;5.55;;;11.00;99.90;;;;;;4976092;28;90257;-30
2022/09/26 07:37:03;;;;;;;5.75;5.03;;;11.00;99.90;;;;;;4977231;28;90317;-30
2022/09/26 07:39:28;;;;;;;4.32;3.70;;;11.10;99.90;;;;;;4976717;28;90199;-30
2022/09/26 07:41:54;;;;;;;8.82;4.40;;;11.00;99.90;;;;;;4976969;28;89812;-30
2022/09/26 07:44:20;;;;;;;5.07;4.57;;;11.00;99.90;;;;;;4976384;28;89194;-33
2022/09/26 07:52:13;;;;;;;5.50;4.95;;;11.00;99.90;;;;;;4978042;28;90206;-31
2022/09/26 07:54:40;;;;;;;9.07;5.05;;;11.10;99.90;;;;;;4978038;28;90180;-31
2022/09/26 07:57:06;;;;;;;8.07;4.20;;;11.00;99.90;;;;;;4977963;28;90605;-29
2022/09/26 07:59:35;;;;;;;6.07;4.93;;;11.00;99.90;;;;;;4976972;28;89854;-32
2022/09/26 08:02:02;;;;;;;7.40;4.78;;;11.00;99.90;;;;;;4977602;28;90234;-31
2022/09/26 08:04:28;;;;;;;5.65;5.05;;;11.00;99.90;;;;;;4977680;28;89621;-33
2022/09/26 08:06:55;;;;;;;7.93;5.32;;;11.10;99.90;;;;;;4977690;28;90583;-31
2022/09/26 08:09:20;;;;;;;8.15;4.97;;;11.10;99.90;;;;;;4977449;28;88945;-30
2022/09/26 08:11:46;;;;;;;6.50;5.70;;;11.10;99.90;;;;;;4978140;28;88925;-33
2022/09/26 08:14:12;;;;;;;6.00;5.43;;;11.10;99.90;;;;;;4977444;28;90119;-32
2022/09/26 08:16:40;;;;;;;7.18;4.55;;;11.20;99.90;;;;;;4978590;28;89272;-34
2022/09/26 08:19:07;;;;;;;12.90;5.28;;;11.20;99.90;;;;;;4978049;28;88103;-33
2022/09/26 08:21:33;;;;;;;7.68;5.45;;;11.20;99.90;;;;;;4977255;28;91312;-33
2022/09/26 08:23:59;;;;;;;5.60;4.93;;;11.20;99.90;;;;;;4977639;28;90582;-31
2022/09/26 08:26:24;;;;;;;9.95;5.70;;;11.20;99.90;;;;;;4978256;28;90458;-28
2022/09/26 08:28:50;;;;;;;5.22;4.47;;;11.20;99.90;;;;;;4978176;28;89163;-29
2022/09/26 08:31:16;;;;;;;7.07;5.00;;;11.20;99.90;;;;;;4978198;28;91085;-33
2022/09/26 08:33:43;;;;;;;5.82;5.32;;;11.20;99.90;;;;;;4977567;28;90213;-30
2022/09/26 08:36:14;;;;;;;6.57;5.90;;;11.20;99.90;;;;;;4977507;28;90042;-33
2022/09/26 08:38:39;;;;;;;7.00;4.85;;;11.20;99.90;;;;;;4977327;28;89588;-32
2022/09/26 08:41:31;;;;;;;5.63;4.88;;;11.30;99.90;;;;;;4977743;28;90132;-33
2022/09/26 08:44:28;;;;;;;6.75;4.30;;;11.30;99.90;;;;;;4977382;28;89468;-29
2022/09/26 08:47:03;;;;;;;5.70;5.10;;;11.30;99.90;;;;;;4977033;28;89209;-32
2022/09/26 08:49:58;;;;;;;8.95;4.57;;;11.40;99.90;;;;;;4977162;28;89248;-33
2022/09/26 08:52:34;;;;;;;6.30;5.05;;;11.40;99.90;;;;;;4977110;28;91517;-30
2022/09/26 08:55:16;;;;;;;6.18;5.15;;;11.40;99.90;;;;;;4977097;28;89930;-31
2022/09/26 08:57:48;;;;;;;5.55;4.75;;;11.40;99.90;;;;;;4977481;28;90067;-33
2022/09/26 09:00:23;;;;;;;10.55;5.25;;;11.50;99.90;;;;;;4977406;28;89922;-31
2022/09/26 09:03:07;;;;;;;5.68;4.90;;;11.50;99.90;;;;;;4959564;28;89742;-29
2022/09/26 09:05:38;;;;;;;8.50;4.60;;;11.50;99.90;;;;;;4977972;28;90153;-32
2022/09/26 09:08:11;;;;;;;6.35;4.07;;;11.50;99.90;;;;;;4977424;28;88047;-32
2022/09/26 09:11:10;;;;;;;5.93;5.30;;;11.50;99.90;;;;;;4958763;28;88295;-33
2022/09/26 09:13:56;;;;;;;5.45;4.40;;;11.60;99.90;;;;;;4976745;28;91404;-33
2022/09/26 09:16:52;;;;;;;5.57;3.78;;;11.60;99.90;;;;;;4976889;28;91288;-29
2022/09/26 09:19:36;;;;;;;4.95;4.07;;;11.60;99.90;;;;;;4976809;28;89892;-30
2022/09/26 09:22:26;;;;;;;4.97;4.47;;;11.70;99.90;;;;;;4972835;28;88963;-33
2022/09/26 09:25:08;;;;;;;9.38;5.00;;;11.70;99.90;;;;;;4977377;28;90186;-32
2022/09/26 09:28:01;;;;;;;7.07;3.95;;;11.80;99.90;;;;;;4976145;28;90039;-35
2022/09/26 09:30:40;;;;;;;5.70;3.78;;;11.80;99.90;;;;;;4979355;28;89227;-30
2022/09/26 09:33:14;;;;;;;5.30;3.75;;;11.80;99.90;;;;;;4962958;28;89632;-32
2022/09/26 09:35:56;;;;;;;10.13;5.45;;;11.90;99.90;;;;;;4979934;28;90234;-33
2022/09/26 09:38:27;;;;;;;6.53;4.22;;;11.90;99.90;;;;;;4979936;28;89359;-31
2022/09/26 09:41:01;;;;;;;5.90;4.28;;;11.90;99.90;;;;;;4980414;28;89417;-31
2022/09/26 09:43:30;;;;;;;7.63;4.47;;;12.00;99.90;;;;;;4979635;28;90274;-30
2022/09/26 09:46:03;;;;;;;6.78;4.65;;;12.00;99.90;;;;;;4979277;28;90272;-33
2022/09/26 09:48:29;;;;;;;5.40;4.82;;;12.00;99.90;;;;;;4979496;28;89312;-30
2022/09/26 09:51:21;;;;;;;7.72;4.97;;;12.10;99.90;;;;;;4981005;28;88907;-32
2022/09/26 09:54:11;;;;;;;6.72;4.45;;;12.00;99.90;;;;;;4980212;28;89135;-31
2022/09/26 09:56:55;;;;;;;14.98;5.00;;;12.00;99.90;;;;;;4980012;28;90546;-30
2022/09/26 09:59:47;;;;;;;6.22;4.28;;;12.00;99.90;;;;;;4979473;28;89606;-30
2022/09/26 10:02:35;;;;;;;7.90;4.95;;;12.10;99.90;;;;;;4979553;28;91028;-30
2022/09/26 10:05:27;;;;;;;6.18;5.50;;;12.10;99.90;;;;;;4979368;28;89157;-33
2022/09/26 10:07:57;;;;;;;8.23;5.38;;;12.10;99.90;;;;;;4976716;28;90202;-30
2022/09/26 10:10:37;;;;;;;7.20;4.50;;;12.00;99.90;;;;;;4978828;28;91009;-32
2022/09/26 10:13:04;;;;;;;5.70;3.83;;;12.00;99.90;;;;;;4979999;28;90520;-34
2022/09/26 10:15:33;;;;;;;5.30;4.60;;;12.00;99.90;;;;;;4979788;28;89367;-32
2022/09/26 10:18:05;;;;;;;8.90;5.05;;;12.00;99.90;;;;;;4979318;28;92056;-31
2022/09/26 10:20:36;;;;;;;5.90;5.30;;;12.00;99.90;;;;;;4979626;28;89668;-32
2022/09/26 10:23:17;;;;;;;9.40;5.70;;;11.90;99.90;;;;;;4979240;28;89641;-31
2022/09/26 10:25:48;;;;;;;5.57;5.07;;;11.90;99.90;;;;;;4979354;28;89348;-33
2022/09/26 10:28:28;;;;;;;7.60;5.13;;;11.90;99.90;;;;;;4978528;28;90455;-33
2022/09/26 10:31:02;;;;;;;7.20;5.45;;;12.00;99.90;;;;;;4979418;28;88497;-31
2022/09/26 10:33:32;;;;;;;5.60;4.88;;;11.90;99.90;;;;;;4978815;28;89541;-33
2022/09/26 10:36:03;;;;;;;12.18;6.75;;;11.80;99.90;;;;;;4979066;28;89296;-30
2022/09/26 10:38:29;;;;;;;7.13;5.60;;;11.90;99.90;;;;;;4978350;28;90214;-30
2022/09/26 10:41:02;;;;;;;13.50;6.63;;;11.90;99.90;;;;;;4978727;28;89613;-33
2022/09/26 10:43:32;;;;;;;7.45;5.47;;;11.80;99.90;;;;;;4978543;28;89448;-33
2022/09/26 10:46:13;;;;;;;10.52;5.35;;;11.80;99.90;;;;;;4982207;28;88383;-32
2022/09/26 10:48:58;;;;;;;8.02;7.15;;;11.80;99.90;;;;;;4978954;28;89118;-31
2022/09/26 10:51:49;;;;;;;6.28;5.68;;;11.80;99.90;;;;;;4979036;28;90205;-31
2022/09/26 10:54:18;;;;;;;14.90;6.35;;;11.80;99.90;;;;;;4978171;28;89449;-32
2022/09/26 10:56:49;;;;;;;6.18;5.68;;;11.80;99.90;;;;;;4978985;28;88530;-30
2022/09/26 10:59:16;;;;;;;7.57;5.30;;;11.80;99.90;;;;;;4959740;28;90287;-32
2022/09/26 11:01:49;;;;;;;6.70;5.88;;;11.90;99.90;;;;;;4978723;28;89215;-30
2022/09/26 11:07:08;;;;;;;6.82;5.95;;;11.90;99.90;;;;;;4978476;28;87993;-30
2022/09/26 11:09:37;;;;;;;10.25;5.32;;;11.90;99.90;;;;;;4978196;28;91088;-30
2022/09/26 11:12:24;;;;;;;9.68;5.15;;;12.00;99.90;;;;;;4978852;28;89350;-31
2022/09/26 11:14:59;;;;;;;7.15;5.20;;;11.90;99.90;;;;;;4978612;28;89585;-30
2022/09/26 11:18:00;;;;;;;6.43;5.50;;;12.00;99.90;;;;;;4978447;28;88938;-33
2022/09/26 11:20:50;;;;;;;9.50;6.45;;;11.90;99.90;;;;;;4916335;28;89838;-31
2022/09/26 11:23:43;;;;;;;5.40;4.90;;;12.00;99.90;;;;;;4975247;28;89005;-31
2022/09/26 11:26:34;;;;;;;8.80;6.22;;;11.90;99.90;;;;;;4978889;28;89930;-30
2022/09/26 11:29:16;;;;;;;5.22;4.70;;;12.00;99.90;;;;;;4978597;28;89290;-31
2022/09/26 11:31:43;;;;;;;7.47;6.10;;;11.90;99.90;;;;;;4978804;28;90013;-30
2022/09/26 11:34:18;;;;;;;6.60;5.97;;;11.90;99.90;;;;;;4978217;28;90744;-31
2022/09/26 11:37:16;;;;;;;12.93;5.07;;;11.90;99.90;;;;;;4978640;28;89444;-33
2022/09/26 11:39:49;;;;;;;9.65;6.85;;;11.90;99.90;;;;;;4978901;28;88305;-34
2022/09/26 11:42:53;;;;;;;6.28;5.47;;;11.80;99.90;;;;;;4978344;28;90049;-33
2022/09/26 11:46:02;;;;;;;10.75;5.80;;;11.80;99.90;;;;;;4977509;28;91020;-33
2022/09/26 11:48:48;;;;;;;6.35;5.05;;;11.70;99.90;;;;;;4978458;28;89353;-30
2022/09/26 11:51:26;;;;;;;9.77;8.82;;;11.80;99.90;;;;;;4978370;28;88998;-32
2022/09/26 11:54:20;;;;;;;6.57;5.05;;;11.80;99.90;;;;;;4977151;28;91323;-33
2022/09/26 11:56:50;;;;;;;8.02;6.22;;;11.80;99.90;;;;;;4977890;28;90604;-33
2022/09/26 11:59:22;;;;;;;5.80;5.28;;;11.80;99.90;;;;;;4978076;28;90223;-30
2022/09/26 12:02:23;;;;;;;8.85;6.00;;;11.80;99.90;;;;;;4978805;28;88814;-33
2022/09/26 12:05:10;;;;;;;7.68;6.95;;;11.90;99.90;;;;;;4922099;28;89993;-31
2022/09/26 12:07:57;;;;;;;11.15;6.15;;;11.80;99.90;;;;;;4977958;28;90068;-34
2022/09/26 12:10:52;;;;;;;6.85;6.13;;;11.80;99.90;;;;;;4978371;28;89049;-31
2022/09/26 12:13:31;;;;;;;7.43;6.43;;;11.80;99.90;;;;;;4978304;28;89633;-34
2022/09/26 12:16:11;;;;;;;7.05;5.97;;;11.80;99.90;;;;;;4978206;28;90550;-32
2022/09/26 12:18:45;;;;;;;9.15;5.60;;;11.80;99.90;;;;;;4978128;28;89491;-30
2022/09/26 12:21:30;;;;;;;7.88;6.60;;;11.80;99.90;;;;;;4977525;28;89468;-31
2022/09/26 12:24:04;;;;;;;6.45;5.13;;;11.90;99.90;;;;;;4977876;28;89105;-30
2022/09/26 12:26:33;;;;;;;6.40;5.30;;;11.90;99.90;;;;;;4977019;28;90089;-31
2022/09/26 12:29:22;;;;;;;6.25;5.68;;;11.90;99.90;;;;;;4977959;28;89794;-29
2022/09/26 12:32:05;;;;;;;8.43;5.65;;;11.90;99.90;;;;;;4977813;28;89554;-33
2022/09/26 12:34:40;;;;;;;9.85;5.80;;;11.90;99.90;;;;;;4978294;28;89624;-31
2022/09/26 12:38:04;;;;;;;6.78;4.68;;;12.00;99.90;;;;;;4976735;28;90340;-31
2022/09/26 12:40:53;;;;;;;6.38;4.28;;;12.00;99.90;;;;;;4915321;28;89525;-34
2022/09/26 12:43:40;;;;;;;5.70;5.10;;;12.00;99.90;;;;;;4915732;28;89552;-32
2022/09/26 12:46:29;;;;;;;4.53;3.88;;;12.00;99.90;;;;;;5005131;22;91838;-32
2022/09/26 12:48:55;;;;;;;5.18;3.80;;;12.00;99.90;;;;;;4997079;28;90071;-33
2022/09/26 12:51:54;;;;;;;4.75;3.75;;;12.00;99.90;;;;;;4997287;28;91451;-31
2022/09/26 12:54:42;;;;;;;3.22;2.90;;;12.10;99.90;;;;;;4995120;28;89847;-33
2022/09/26 12:57:21;;;;;;;4.18;3.67;;;12.10;99.90;;;;;;4997600;28;89182;-33
2022/09/26 13:00:11;;;;;;;4.05;3.38;;;12.10;99.90;;;;;;4997387;28;90315;-32
2022/09/26 13:03:14;;;;;;;3.75;3.20;;;12.10;99.90;;;;;;4997000;28;89534;-31
2022/09/26 13:05:59;;;;;;;3.92;3.58;;;12.10;99.90;;;;;;4994988;28;89214;-32
2022/09/26 13:08:56;;;;;;;3.80;3.50;;;12.10;99.90;;;;;;4997606;28;89139;-32
2022/09/26 13:11:39;;;;;;;4.07;3.67;;;12.20;99.90;;;;;;4997570;28;90349;-32
2022/09/26 13:14:25;;;;;;;4.00;3.63;;;12.10;99.90;;;;;;4997163;28;89977;-30
2022/09/26 13:17:09;;;;;;;3.78;3.15;;;12.10;99.90;;;;;;4997063;28;89354;-34
2022/09/26 13:19:57;;;;;;;6.40;4.18;;;12.10;99.90;;;;;;4996696;28;89502;-31
2022/09/26 13:22:31;;;;;;;;;;;12.10;99.90;;;;;;4997639;28;90324;-32
2022/09/26 13:25:19;;;;;;;4.35;3.60;;;12.00;99.90;;;;;;4998063;28;89112;-31
2022/09/26 13:27:53;;;;;;;3.83;3.47;;;12.10;99.90;;;;;;4996598;28;89621;-32
2022/09/26 13:30:34;;;;;;;4.15;3.33;;;12.00;99.90;;;;;;4996915;28;88143;-32
2022/09/26 13:33:30;;;;;;;4.78;2.85;;;12.10;99.90;;;;;;4996514;28;89846;-33
2022/09/26 13:35:59;;;;;;;4.88;4.38;;;12.10;99.90;;;;;;4996940;28;88441;-34